Home > Products > Valid Products > TAF

000
FTUS46 KMTR 200500
TAFSNS
TAF
KSNS 200536Z 2006/2106 29004KT P6SM SCT008
     FM200800 VRB03KT P6SM OVC008
     FM201000 VRB03KT P6SM OVC005
     FM201800 VRB03KT P6SM SCT015 BKN150
     FM202000 28008KT P6SM BKN150=



000
FTUS46 KMTR 200500
TAFSJC
TAF
KSJC 200536Z 2006/2106 32004KT P6SM SCT200
     FM201000 VRB03KT P6SM BKN020
     FM201800 25005KT P6SM BKN030 BKN150
     FM210400 VRB03KT P6SM BKN050=



000
FTUS46 KMTR 200500
TAFSTS
TAF
KSTS 200536Z 2006/2106 VRB03KT P6SM SCT030 BKN150
     FM200900 00000KT P6SM BKN030
     FM201600 23004KT 3SM -RA BR OVC015
     FM202200 25005KT P6SM BKN025
     FM210300 27005KT P6SM SCT040=



000
FTUS46 KMTR 200500
TAFOAK
TAF
KOAK 200536Z 2006/2112 27006KT P6SM BKN015 BKN180
     FM201400 25007KT P6SM OVC025 PROB30 2016/2022 6SM -RA BR
     FM210500 27010KT P6SM BKN050=



000
FTUS46 KMTR 200500
TAFSFO
TAF
KSFO 200536Z 2006/2112 28006KT P6SM SCT018 BKN180
     FM200700 23006KT P6SM BKN018
     FM201000 25006KT P6SM OVC025 PROB30 2016/2022 6SM -RA BR
     FM210500 27012KT P6SM BKN050=



000
FTUS46 KMTR 200500
TAFMRY
TAF
KMRY 200536Z 2006/2106 VRB03KT P6SM SCT008
     FM200700 VRB03KT P6SM BKN008
     FM201000 VRB03KT P6SM OVC004
     FM201800 VRB03KT P6SM SCT015 BKN150
     FM202000 26008KT P6SM BKN150=



000
FTUS46 KMTR 200300 AAA
TAFSFO
TAF AMD
KSFO 200304Z 2003/2106 28006KT P6SM SCT020 BKN180
     FM200700 23006KT P6SM BKN020
     FM201000 25006KT P6SM OVC025 PROB30 2014/2018 6SM -RA BR
     FM210500 27012KT P6SM SCT050=



000
FTUS46 KMTR 200200 AAA
TAFMRY
TAF AMD
KMRY 200242Z 2003/2024 25006KT P6SM FEW020
     FM200500 VRB03KT P6SM BKN008
     FM201000 VRB03KT P6SM OVC004
     FM201800 VRB03KT P6SM SCT015 BKN150
     FM202000 26008KT P6SM BKN150=



000
FTUS46 KMTR 192300
TAFSNS
TAF
KSNS 192321Z 2000/2024 29008KT P6SM SKC
     FM200400 29004KT P6SM BKN008
     FM201000 VRB03KT P6SM OVC005
     FM201800 VRB03KT P6SM SCT015 BKN150
     FM202000 28008KT P6SM BKN150=



000
FTUS46 KMTR 192300
TAFOAK
TAF
KOAK 192321Z 2000/2106 28012KT P6SM SKC
     FM200400 24006KT P6SM SCT020 BKN180
     FM200700 22005KT P6SM BKN020
     FM201400 25007KT P6SM OVC025 PROB30 2016/2022 6SM -RA BR
     FM210500 27010KT P6SM SCT050=



000
FTUS46 KMTR 192300
TAFMRY
TAF
KMRY 192321Z 2000/2024 25006KT P6SM FEW020
     FM200300 VRB03KT P6SM BKN008
     FM201000 VRB03KT P6SM OVC004
     FM201800 VRB03KT P6SM SCT015 BKN150
     FM202000 26008KT P6SM BKN150=



000
FTUS46 KMTR 192300
TAFSTS
TAF
KSTS 192321Z 2000/2024 19007KT P6SM SKC
     FM200400 VRB03KT P6SM SCT004 BKN150
     FM200900 00000KT 2SM BR OVC004 PROB30 2012/2016 1/2SM DZ FG
     FM201600 23004KT 3SM -RA BR OVC015
     FM202200 25005KT P6SM BKN025=



000
FTUS46 KMTR 192300
TAFSJC
TAF
KSJC 192321Z 2000/2024 31008KT P6SM SKC
     FM200400 32004KT P6SM SCT200
     FM201000 VRB03KT P6SM BKN020
     FM201800 VRB03KT P6SM SCT030 BKN150=



000
FTUS46 KMTR 192300
TAFSFO
TAF
KSFO 192321Z 2000/2106 31014KT P6SM FEW010
     FM200400 26008KT P6SM SCT020 BKN180
     FM200700 23006KT P6SM BKN020
     FM201000 25006KT P6SM OVC025 PROB30 2014/2018 6SM -RA BR
     FM210500 27012KT P6SM SCT050=



000
FTUS46 KMTR 192300
TAFSJC
TAF
KSJC 192321Z 2000/2024 31008KT P6SM SKC
     FM200400 32004KT P6SM SCT200
     FM201000 VRB03KT P6SM BKN020
     FM201800 VRB03KT P6SM SCT030 BKN150=



000
FTUS46 KMTR 192300
TAFSFO
TAF
KSFO 192321Z 2000/2106 31014KT P6SM FEW010
     FM200400 26008KT P6SM SCT020 BKN180
     FM200700 23006KT P6SM BKN020
     FM201000 25006KT P6SM OVC025 PROB30 2014/2018 6SM -RA BR
     FM210500 27012KT P6SM SCT050=



000
FTUS46 KMTR 192300
TAFOAK
TAF
KOAK 192321Z 2000/2106 28012KT P6SM SKC
     FM200400 24006KT P6SM SCT020 BKN180
     FM200700 22005KT P6SM BKN020
     FM201400 25007KT P6SM OVC025 PROB30 2016/2022 6SM -RA BR
     FM210500 27010KT P6SM SCT050=



000
FTUS46 KMTR 192300
TAFSTS
TAF
KSTS 192321Z 2000/2024 19007KT P6SM SKC
     FM200400 VRB03KT P6SM SCT004 BKN150
     FM200900 00000KT 2SM BR OVC004 PROB30 2012/2016 1/2SM DZ FG
     FM201600 23004KT 3SM -RA BR OVC015
     FM202200 25005KT P6SM BKN025=



000
FTUS46 KMTR 192300
TAFMRY
TAF
KMRY 192321Z 2000/2024 25006KT P6SM FEW020
     FM200300 VRB03KT P6SM BKN008
     FM201000 VRB03KT P6SM OVC004
     FM201800 VRB03KT P6SM SCT015 BKN150
     FM202000 26008KT P6SM BKN150=



000
FTUS46 KMTR 192300
TAFSNS
TAF
KSNS 192321Z 2000/2024 29008KT P6SM SKC
     FM200400 29004KT P6SM BKN008
     FM201000 VRB03KT P6SM OVC005
     FM201800 VRB03KT P6SM SCT015 BKN150
     FM202000 28008KT P6SM BKN150=



000
FTUS46 KMTR 192100 AAA
TAFSFO
TAF AMD
KSFO 192104Z 1921/2024 31014KT P6SM FEW010
     FM200400 26008KT P6SM SCT020 BKN180
     FM201000 25006KT P6SM OVC015 PROB30 2014/2018 6SM -RA BR=



000
FTUS46 KMTR 191700
TAFSNS
TAF
KSNS 191732Z 1918/2018 12005KT P6SM SKC
     FM192000 29008KT P6SM SKC
     FM200400 29004KT P6SM BKN015
     FM201000 VRB03KT P6SM OVC010
     FM201400 14004KT 5SM BR OVC005=



000
FTUS46 KMTR 191700
TAFMRY
TAF
KMRY 191732Z 1918/2018 VRB03KT P6SM SKC
     FM192200 25006KT P6SM FEW020
     FM200300 VRB03KT P6SM BKN015
     FM201000 VRB03KT P6SM OVC007
     FM201400 VRB03KT 5SM BR OVC005=



000
FTUS46 KMTR 191700
TAFSFO
TAF
KSFO 191732Z 1918/2024 07005KT P6SM FEW010
     FM192000 29010KT P6SM FEW010
     FM200400 21006KT P6SM SCT020 BKN180
     FM201000 25006KT P6SM OVC015 PROB30 2014/2018 6SM -RA BR=



000
FTUS46 KMTR 191700
TAFOAK
TAF
KOAK 191732Z 1918/2024 24004KT P6SM BKN010
     FM191900 26008KT P6SM FEW010
     FM192000 28012KT P6SM SKC
     FM200400 24006KT P6SM SCT020 BKN180
     FM201400 25007KT P6SM OVC012 PROB30 2016/2020 6SM -RA BR=



000
FTUS46 KMTR 191700
TAFSTS
TAF
KSTS 191732Z 1918/2018 VRB03KT P6SM SCT002
     FM192100 19007KT P6SM SKC
     FM200400 VRB03KT P6SM SCT004 BKN150
     FM200900 00000KT 2SM BR OVC004 PROB30 2012/2016 1/2SM DZ FG
     FM201600 23004KT 3SM -RA BR OVC004=



000
FTUS46 KMTR 191700
TAFSJC
TAF
KSJC 191732Z 1918/2018 VRB03KT P6SM SCT010
     FM192100 31008KT P6SM SKC
     FM200400 32004KT P6SM SCT200
     FM201000 VRB03KT 5SM BR OVC010=



000
FTUS46 KMTR 191600 AAA
TAFSNS
TAF AMD
KSNS 191603Z 1916/2012 VRB03KT P6SM SKC
     FM192000 29008KT P6SM SKC
     FM200400 29004KT P6SM BKN015
     FM201000 VRB03KT P6SM OVC010=



000
FTUS46 KMTR 191600 AAA
TAFMRY
TAF AMD
KMRY 191602Z 1916/2012 VRB03KT P6SM SKC
     FM192000 25006KT P6SM FEW020
     FM200300 VRB03KT P6SM BKN015
     FM201000 VRB03KT P6SM OVC007=



000
FTUS46 KMTR 191500 AAA
TAFSJC
TAF AMD
KSJC 191506Z 1915/2012 00000KT 3SM BR SCT003 OVC004
      TEMPO 1915/1916 1/4SM FG OVC002
     FM191700 29006KT P6SM SCT005
     FM192100 31010KT P6SM FEW030
     FM200400 32004KT P6SM SCT200=



000
FTUS46 KMTR 191400 AAA
TAFSFO
TAF AMD
KSFO 191451Z 1915/2018 30008KT P6SM SCT005
     FM191800 29010KT P6SM FEW010
     FM200400 21006KT P6SM SCT030 BKN180=



000
FTUS46 KMTR 191100
TAFOAK
TAF
KOAK 191133Z 1912/2018 27005KT P6SM BKN020
     FM191300 24004KT 6SM BR OVC015
     FM191800 26008KT P6SM FEW010 BKN025
     FM192100 26012KT P6SM SCT030
     FM200400 24006KT P6SM SCT030 BKN150=



000
FTUS46 KMTR 191100
TAFSNS
TAF
KSNS 191133Z 1912/2012 VRB03KT P6SM BKN030
     FM191400 12003KT 2SM BR OVC010
     FM191800 VRB03KT P6SM BKN015
     FM192000 29008KT P6SM SKC
     FM200400 29004KT P6SM BKN015=



000
FTUS46 KMTR 191100
TAFSFO
TAF
KSFO 191133Z 1912/2018 26006KT P6SM SCT015
     FM191400 26005KT P6SM OVC015
     FM191700 27006KT P6SM BKN025
     FM192100 27005KT P6SM SCT030
     FM200400 21006KT P6SM SCT030 BKN150=



000
FTUS46 KMTR 191100
TAFMRY
TAF
KMRY 191133Z 1912/2012 VRB03KT P6SM BKN030
     FM191400 VRB03KT 2SM BR OVC010
     FM191800 VRB03KT P6SM BKN015
     FM192000 25006KT P6SM SCT025
     FM200300 VRB03KT P6SM BKN015=



000
FTUS46 KMTR 191100
TAFSJC
TAF
KSJC 191133Z 1912/2012 30005KT P6SM SKC
     FM191400 VRB03KT P6SM BKN015
     FM191900 VRB03KT P6SM SCT020
     FM192100 31010KT P6SM FEW030
     FM200400 32004KT P6SM FEW030=



000
FTUS46 KMTR 191100
TAFSTS
TAF
KSTS 191133Z 1912/2012 VRB03KT 1/4SM FG VV002
     FM191700 00000KT 6SM BR OVC007
     FM191900 VRB03KT P6SM SCT012
     FM192100 19007KT P6SM SKC
     FM200400 VRB03KT P6SM BKN150=



000
FTUS46 KMTR 190900 AAA
TAFSFO
TAF AMD
KSFO 190913Z 1909/2012 26006KT P6SM SCT015
     FM191000 26005KT P6SM OVC015
     FM191700 27006KT P6SM BKN025
     FM192100 27005KT P6SM SCT030
     FM200400 21006KT P6SM SCT030 BKN150=



000
FTUS46 KMTR 190800 AAA
TAFSTS
TAF AMD
KSTS 190832Z 1909/2006 VRB03KT 1/4SM FG VV002
     FM191700 00000KT 6SM BR OVC007
     FM191900 VRB03KT P6SM SCT012
     FM192100 19007KT P6SM SKC
     FM200400 VRB03KT P6SM BKN150=



000
FTUS46 KMTR 190500
TAFSJC
TAF
KSJC 190520Z 1906/2006 30005KT P6SM SKC
     FM191400 VRB03KT P6SM BKN015
     FM191900 VRB03KT P6SM SCT020
     FM192100 31010KT P6SM FEW030
     FM200400 32004KT P6SM FEW030=



000
FTUS46 KMTR 190500
TAFMRY
TAF
KMRY 190520Z 1906/2006 VRB03KT P6SM BKN030
     FM191200 VRB03KT 2SM BR OVC010
     FM191800 VRB03KT P6SM BKN015
     FM192000 25006KT P6SM SCT025
     FM200300 VRB03KT P6SM BKN015=



000
FTUS46 KMTR 190500
TAFSFO
TAF
KSFO 190520Z 1906/2012 29012KT P6SM FEW015
     FM190800 26006KT P6SM SCT015
     FM191000 26005KT P6SM OVC015
     FM191700 27006KT P6SM BKN025
     FM192100 27005KT P6SM SCT030
     FM200400 21006KT P6SM SCT030 BKN150=



000
FTUS46 KMTR 190500
TAFOAK
TAF
KOAK 190520Z 1906/2012 29005KT P6SM SCT020
     FM190800 27005KT P6SM BKN020
     FM191200 24004KT 6SM BR OVC015
     FM191800 26008KT P6SM FEW010 BKN025
     FM192100 26012KT P6SM SCT030
     FM200400 24006KT P6SM SCT030 BKN150=



000
FTUS46 KMTR 190500
TAFSNS
TAF
KSNS 190520Z 1906/2006 28004KT P6SM SKC
     FM190700 VRB03KT P6SM BKN030
     FM191300 12003KT 2SM BR OVC010
     FM191800 VRB03KT P6SM BKN015
     FM192000 29008KT P6SM SKC
     FM200400 29004KT P6SM BKN015=



000
FTUS46 KMTR 190500
TAFSTS
TAF
KSTS 190520Z 1906/2006 24005KT P6SM SCT050
     FM190800 VRB03KT 1SM BR OVC003
     FM191400 00000KT 1/2SM FG VV002
     FM191700 00000KT 6SM BR OVC007
     FM191900 VRB03KT P6SM SCT012
     FM192100 19007KT P6SM SKC
     FM200400 VRB03KT P6SM BKN150=



000
FTUS46 KMTR 190300 AAA
TAFSNS
TAF AMD
KSNS 190350Z 1904/1924 28004KT P6SM SKC
     FM190700 VRB03KT P6SM BKN030
     FM191300 12003KT 2SM BR OVC010
     FM191800 VRB03KT P6SM BKN015
     FM192000 29008KT P6SM SKC=



000
FTUS46 KMTR 190300 AAA
TAFSNS
TAF AMD
KSNS 190350Z 1904/1924 28004KT P6SM SKC
     FM190700 VRB03KT P6SM BKN030
     FM191300 12003KT 2SM BR OVC010
     FM191800 VRB03KT P6SM BKN015
     FM192000 29008KT P6SM SKC=



000
FTUS46 KMTR 190300 AAA
TAFMRY
TAF AMD
KMRY 190349Z 1904/1924 VRB03KT P6SM SKC
     FM190600 VRB03KT P6SM BKN030
     FM191200 VRB03KT 2SM BR OVC010
     FM191800 VRB03KT P6SM BKN015
     FM192000 25006KT P6SM SCT025=



000
FTUS46 KMTR 190300 AAA
TAFMRY
TAF AMD
KMRY 190349Z 1904/1924 VRB03KT P6SM SKC
     FM190600 VRB03KT P6SM BKN030
     FM191200 VRB03KT 2SM BR OVC010
     FM191800 VRB03KT P6SM BKN015
     FM192000 25006KT P6SM SCT025=



000
FTUS46 KMTR 190200 AAA
TAFSFO
TAF AMD
KSFO 190256Z 1903/2006 29012KT P6SM FEW015
     FM190800 26006KT P6SM SCT015
     FM191000 26005KT P6SM OVC015
     FM191700 27006KT P6SM BKN025
     FM192100 27005KT P6SM SCT030
     FM200400 21006KT P6SM SCT030 BKN150=



000
FTUS46 KMTR 182300
TAFSFO
TAF
KSFO 182321Z 1900/2006 29007KT P6SM FEW015
     FM190800 26005KT P6SM SCT015
     FM191000 26005KT P6SM OVC015
     FM191700 27006KT P6SM BKN025
     FM192100 27005KT P6SM SCT030
     FM200400 21006KT P6SM SCT030 BKN150=



000
FTUS46 KMTR 182300
TAFSTS
TAF
KSTS 182321Z 1900/1924 24005KT P6SM SCT050
     FM190700 VRB03KT 1SM BR OVC003
     FM191400 00000KT 1/2SM FG VV002
     FM191700 00000KT 6SM BR OVC007
     FM191900 VRB03KT P6SM BKN012
     FM192100 19007KT P6SM SCT015=



000
FTUS46 KMTR 182300
TAFOAK
TAF
KOAK 182321Z 1900/2006 29010KT P6SM FEW040
     FM190500 29005KT P6SM SCT020
     FM190800 27005KT P6SM BKN020
     FM191200 24004KT 6SM BR OVC015
     FM191800 26008KT P6SM FEW010 BKN025
     FM192100 26012KT P6SM SCT030
     FM200400 24006KT P6SM SCT030 BKN150=



000
FTUS46 KMTR 182300
TAFMRY
TAF
KMRY 182321Z 1900/1924 28009KT P6SM SKC
     FM190400 VRB03KT P6SM BKN030
     FM191200 VRB03KT 2SM BR OVC010
     FM191800 VRB03KT P6SM BKN015
     FM192000 25006KT P6SM SCT025=



000
FTUS46 KMTR 182300
TAFSNS
TAF
KSNS 182321Z 1900/1924 28009KT P6SM SKC
     FM190400 VRB03KT P6SM OVC030
     FM191300 12003KT 2SM BR OVC010
     FM191800 VRB03KT P6SM BKN015
     FM192000 29008KT P6SM SKC=



000
FTUS46 KMTR 182300
TAFSJC
TAF
KSJC 182321Z 1900/1924 31010KT P6SM SKC
     FM190400 30005KT P6SM SKC
     FM191500 VRB03KT P6SM BKN015
     FM191900 VRB03KT P6SM SCT020
     FM192100 31010KT P6SM FEW030=



000
FTUS46 KMTR 182100 AAA
TAFSFO
TAF AMD
KSFO 182104Z 1821/1924 VRB03KT P6SM FEW015
     FM190000 29007KT P6SM FEW015
     FM191000 26005KT P6SM OVC015
     FM191700 27006KT P6SM BKN030=



000
FTUS46 KMTR 181700
TAFSTS
TAF
KSTS 181720Z 1818/1918 16004KT P6SM SCT050
     FM190700 VRB03KT 1SM BR OVC003
     FM191400 00000KT 1/2SM FG VV002
     FM191700 00000KT 6SM BR OVC007=



000
FTUS46 KMTR 181700
TAFMRY
TAF
KMRY 181720Z 1818/1918 VRB03KT P6SM SKC
     FM182200 28009KT P6SM SKC
     FM190400 VRB03KT P6SM OVC030
     FM191200 VRB03KT 2SM BR OVC010=



000
FTUS46 KMTR 181700
TAFSNS
TAF
KSNS 181720Z 1818/1918 VRB03KT P6SM SKC
     FM182000 28009KT P6SM SKC
     FM190400 VRB03KT P6SM OVC030
     FM191300 12003KT 2SM BR OVC010=



000
FTUS46 KMTR 181700
TAFSFO
TAF
KSFO 181720Z 1818/1924 VRB03KT P6SM FEW015
     FM182000 29012KT P6SM FEW020
     FM190400 29008KT P6SM FEW015
     FM191000 26005KT P6SM OVC015
     FM191700 27006KT P6SM BKN030=



000
FTUS46 KMTR 181700
TAFSJC
TAF
KSJC 181720Z 1818/1918 VRB03KT P6SM SKC
     FM182200 31010KT P6SM SKC
     FM190400 30005KT P6SM SKC
     FM191500 VRB03KT P6SM BKN015=



000
FTUS46 KMTR 181700
TAFOAK
TAF
KOAK 181720Z 1818/1924 19006KT P6SM FEW050
     FM182000 29012KT P6SM FEW050
     FM190400 29005KT P6SM FEW050
     FM190700 27005KT P6SM BKN020
     FM191200 24004KT 6SM BR OVC015
     FM191800 26008KT P6SM FEW010 BKN030=



000
FTUS46 KMTR 181500 AAA
TAFSFO
TAF AMD
KSFO 181505Z 1815/1918 VRB03KT P6SM SCT070
     FM182000 29012KT P6SM FEW050
     FM190400 29008KT P6SM FEW015
     FM191000 26005KT P6SM OVC015=



000
FTUS46 KMTR 181300 AAC
TAFSTS
TAF AMD
KSTS 181338Z 1814/1912 VRB03KT P6SM BKN025
     FM181700 16004KT P6SM SCT050
     FM190700 VRB03KT 1SM BR OVC003=



000
FTUS46 KMTR 181200 AAB
TAFSTS
TAF AMD
KSTS 181201Z 1812/1912 VRB03KT P6SM OVC019
     FM181700 16004KT P6SM SCT050
     FM190700 VRB03KT 1SM BR OVC003=



000
FTUS46 KMTR 181100 AAA
TAFSTS
TAF AMD
KSTS 181157Z 1812/1912 VRB03KT P6SM OVC019
     FM181700 16004KT P6SM SCT050
     FM190700 VRB03KT 1SM BR OVC003=



000
FTUS46 KMTR 181100
TAFSNS
TAF
KSNS 181125Z 1812/1912 VRB03KT P6SM SKC
     FM190400 VRB03KT P6SM OVC030=



000
FTUS46 KMTR 181100
TAFSJC
TAF
KSJC 181125Z 1812/1912 16005KT P6SM SKC
     FM181700 VRB03KT P6SM SKC
     FM181900 29010KT P6SM SKC
     FM190400 30005KT P6SM SKC=



000
FTUS46 KMTR 181100
TAFSNS
TAF
KSNS 181125Z 1812/1912 VRB03KT P6SM SKC
     FM190400 VRB03KT P6SM OVC030=



000
FTUS46 KMTR 181100
TAFSFO
TAF
KSFO 181125Z 1812/1918 VRB03KT P6SM BKN070
     FM182000 29012KT P6SM SCT050
     FM190400 29008KT P6SM SKC=



000
FTUS46 KMTR 181100
TAFSJC
TAF
KSJC 181125Z 1812/1912 16005KT P6SM SKC
     FM181700 VRB03KT P6SM SKC
     FM181900 29010KT P6SM SKC
     FM190400 30005KT P6SM SKC=



000
FTUS46 KMTR 181100
TAFSTS
TAF
KSTS 181125Z 1812/1912 VRB03KT P6SM BKN025
     FM181700 16004KT P6SM SCT050
     FM190700 VRB03KT 1SM BR OVC003=



000
FTUS46 KMTR 181100
TAFOAK
TAF
KOAK 181125Z 1812/1918 VRB03KT P6SM BKN040 OVC100
     FM181500 12005KT P6SM SCT050 BKN100
     FM182000 29012KT P6SM SCT050
     FM190400 29005KT P6SM SCT050
     FM190700 27005KT P6SM BKN040=



000
FTUS46 KMTR 181100
TAFMRY
TAF
KMRY 181125Z 1812/1912 VRB03KT P6SM SKC
     FM190400 VRB03KT P6SM OVC030=



000
FTUS46 KMTR 181100
TAFSTS
TAF
KSTS 181125Z 1812/1912 VRB03KT P6SM BKN025
     FM181700 16004KT P6SM SCT050
     FM190700 VRB03KT 1SM BR OVC003=



000
FTUS46 KMTR 181100
TAFOAK
TAF
KOAK 181125Z 1812/1918 VRB03KT P6SM BKN040 OVC100
     FM181500 12005KT P6SM SCT050 BKN100
     FM182000 29012KT P6SM SCT050
     FM190400 29005KT P6SM SCT050
     FM190700 27005KT P6SM BKN040=



000
FTUS46 KMTR 181100
TAFMRY
TAF
KMRY 181125Z 1812/1912 VRB03KT P6SM SKC
     FM190400 VRB03KT P6SM OVC030=



000
FTUS46 KMTR 181100
TAFSFO
TAF
KSFO 181125Z 1812/1918 VRB03KT P6SM BKN070
     FM182000 29012KT P6SM SCT050
     FM190400 29008KT P6SM SKC=



000
FTUS46 KMTR 180800 AAA
TAFMRY
TAF AMD
KMRY 180859Z 1809/1906 VRB03KT P6SM SKC
     FM181200 VRB03KT P6SM SCT010 OVC040
     FM181800 25006KT P6SM SCT050
     FM190400 VRB03KT P6SM SKC=



000
FTUS46 KMTR 180800 AAA
TAFSNS
TAF AMD
KSNS 180859Z 1809/1906 32005KT P6SM SKC
     FM181200 VRB03KT P6SM BKN010 OVC040
     FM181800 26008KT P6SM SCT050
     FM190400 VRB03KT P6SM SKC=



000
FTUS46 KMTR 180800 AAA
TAFSTS
TAF AMD
KSTS 180857Z 1809/1906 VRB03KT P6SM SCT050 BKN070
      TEMPO 1812/1815 1/2SM FG OVC004
     FM181700 16004KT P6SM SCT050
     FM190400 VRB03KT P6SM SKC=



000
FTUS46 KMTR 180800 AAA
TAFSFO
TAF AMD
KSFO 180856Z 1809/1912 VRB03KT P6SM BKN070
     FM182000 29012KT P6SM SCT050
     FM190400 29008KT P6SM SKC=



000
FTUS46 KMTR 180800 AAB
TAFOAK
TAF AMD
KOAK 180855Z 1809/1912 VRB03KT P6SM FEW050 BKN150
     FM181500 12005KT P6SM SCT050 BKN100
     FM182000 29010KT P6SM SCT050
     FM190400 29005KT P6SM SKC=



000
FTUS46 KMTR 180800 AAA
TAFOAK
TAF AMD
KOAK 180854Z 1809/1912 VRB03KT P6SM BKN040 OVC100
     FM181500 12005KT P6SM SCT050 BKN100
     FM182000 29012KT P6SM SCT050
     FM190400 29005KT P6SM SCT050
     FM190700 27005KT P6SM BKN040=



000
FTUS46 KMTR 180500
TAFSNS
TAF
KSNS 180520Z 1806/1906 32005KT P6SM OVC100
     FM181200 VRB03KT P6SM BKN010 OVC040
     FM181800 26008KT P6SM SCT050
     FM190400 VRB03KT P6SM SKC=



000
FTUS46 KMTR 180500
TAFSJC
TAF
KSJC 180520Z 1806/1906 16006KT P6SM SCT040 BKN100
     FM180900 16005KT P6SM VCSH BKN040
     FM181700 VRB03KT P6SM SCT050 BKN100
     FM181900 29010KT P6SM SCT050
     FM190400 30005KT P6SM SKC=



000
FTUS46 KMTR 180500
TAFOAK
TAF
KOAK 180520Z 1806/1912 24008KT P6SM SCT050 BKN100
     FM180800 VRB03KT P6SM BKN040 OVC100
      TEMPO 1808/1812 -RA BKN020
     FM181500 12005KT P6SM SCT050 BKN100
     FM182000 29010KT P6SM SCT050
     FM190400 29005KT P6SM SKC=



000
FTUS46 KMTR 180500
TAFMRY
TAF
KMRY 180520Z 1806/1906 VRB03KT P6SM SCT040 BKN100
     FM181200 VRB03KT P6SM SCT010 OVC040
      TEMPO 1813/1817 -DZ BKN010
     FM181800 25006KT P6SM SCT050
     FM190400 VRB03KT P6SM SKC=



000
FTUS46 KMTR 180500
TAFSTS
TAF
KSTS 180520Z 1806/1906 19004KT P6SM -RA OVC035
     FM181200 00000KT 1/2SM FG OVC004
     FM181700 16004KT P6SM SCT050
     FM190400 VRB03KT P6SM SKC=



000
FTUS46 KMTR 180500
TAFSFO
TAF
KSFO 180520Z 1806/1912 16008KT P6SM FEW020 BKN040
      TEMPO 1808/1812 -RA BKN020
     FM181500 VRB03KT P6SM SCT050 BKN100
     FM182000 29012KT P6SM SCT050
     FM190400 29008KT P6SM SKC=



000
FTUS46 KMTR 180200 AAA
TAFSFO
TAF AMD
KSFO 180249Z 1803/1906 20010KT P6SM FEW060 BKN080 BKN180
     FM180600 16008KT P6SM FEW015 BKN040
      TEMPO 1808/1812 -RA
     FM181500 VRB03KT P6SM SCT050 BKN100
     FM182000 29012KT P6SM SCT050=



000
FTUS46 KMTR 180200 AAA
TAFSTS
TAF AMD
KSTS 180243Z 1803/1824 19004KT P6SM -RA OVC035
     FM181200 00000KT 1/2SM FG OVC004
     FM181700 16004KT P6SM SCT050=



000
FTUS46 KMTR 172300
TAFSTS
TAF
KSTS 172339Z 1800/1824 19007KT P6SM VCSH BKN030
     FM180200 VRB03KT P6SM -RA BKN015 OVC025
     FM181000 00000KT 1/2SM FG OVC004
     FM181700 16004KT P6SM SCT050=



000
FTUS46 KMTR 172300
TAFMRY
TAF
KMRY 172339Z 1800/1824 22006KT P6SM BKN150
     FM180300 VRB03KT P6SM SCT040 BKN100
     FM181200 VRB03KT P6SM SCT010 OVC040
      TEMPO 1813/1817 -DZ BKN010
     FM181800 25006KT P6SM SCT050=



000
FTUS46 KMTR 172300
TAFSTS
TAF
KSTS 172339Z 1800/1824 19007KT P6SM VCSH BKN030
     FM180200 VRB03KT P6SM -RA BKN015 OVC025
     FM181000 00000KT 1/2SM FG OVC004
     FM181700 16004KT P6SM SCT050=



000
FTUS46 KMTR 172300
TAFSFO
TAF
KSFO 172339Z 1800/1906 19010KT P6SM FEW060 BKN080 BKN180
     FM180600 16008KT P6SM FEW015 BKN040
      TEMPO 1808/1812 -RA BKN040
     FM181500 VRB03KT P6SM SCT050 BKN100
     FM182000 29012KT P6SM SCT050=



000
FTUS46 KMTR 172300
TAFOAK
TAF
KOAK 172339Z 1800/1906 24008KT P6SM SCT050 BKN100
     FM180800 VRB03KT P6SM BKN030 OVC100
      TEMPO 1808/1812 -RA
     FM181500 12005KT P6SM SCT050 BKN100
     FM182000 29010KT P6SM SCT050=



000
FTUS46 KMTR 172300
TAFSJC
TAF
KSJC 172339Z 1800/1824 15008KT P6SM BKN120
     FM180300 16006KT P6SM SCT040 BKN100
     FM180900 16005KT P6SM VCSH BKN040
     FM181700 VRB03KT P6SM SCT050 BKN100
     FM181900 29010KT P6SM SCT050=



000
FTUS46 KMTR 172300
TAFSNS
TAF
KSNS 172339Z 1800/1824 28009KT P6SM FEW120 BKN180
     FM180400 32005KT P6SM OVC100
     FM181200 VRB03KT P6SM BKN010 OVC040
     FM181800 26008KT P6SM SCT050=



000
FTUS46 KMTR 172300
TAFSFO
TAF
KSFO 172339Z 1800/1906 19010KT P6SM FEW060 BKN080 BKN180
     FM180600 16008KT P6SM FEW015 BKN040
      TEMPO 1808/1812 -RA BKN040
     FM181500 VRB03KT P6SM SCT050 BKN100
     FM182000 29012KT P6SM SCT050=



000
FTUS46 KMTR 172300
TAFSNS
TAF
KSNS 172339Z 1800/1824 28009KT P6SM FEW120 BKN180
     FM180400 32005KT P6SM OVC100
     FM181200 VRB03KT P6SM BKN010 OVC040
     FM181800 26008KT P6SM SCT050=



000
FTUS46 KMTR 172300
TAFOAK
TAF
KOAK 172339Z 1800/1906 24008KT P6SM SCT050 BKN100
     FM180800 VRB03KT P6SM BKN030 OVC100
      TEMPO 1808/1812 -RA
     FM181500 12005KT P6SM SCT050 BKN100
     FM182000 29010KT P6SM SCT050=



000
FTUS46 KMTR 172300
TAFMRY
TAF
KMRY 172339Z 1800/1824 22006KT P6SM BKN150
     FM180300 VRB03KT P6SM SCT040 BKN100
     FM181200 VRB03KT P6SM SCT010 OVC040
      TEMPO 1813/1817 -DZ BKN010
     FM181800 25006KT P6SM SCT050=



000
FTUS46 KMTR 172300
TAFSJC
TAF
KSJC 172339Z 1800/1824 15008KT P6SM BKN120
     FM180300 16006KT P6SM SCT040 BKN100
     FM180900 16005KT P6SM VCSH BKN040
     FM181700 VRB03KT P6SM SCT050 BKN100
     FM181900 29010KT P6SM SCT050=



000
FTUS46 KMTR 172100 AAA
TAFSFO
TAF AMD
KSFO 172103Z 1721/1824 15006KT P6SM FEW060 BKN080 BKN180
     FM180100 24009KT P6SM FEW010 BKN080
      TEMPO 1804/1808 -RA BKN040
     FM181000 15005KT P6SM FEW010 BKN040 OVC100
     FM181500 VRB03KT P6SM BKN060
     FM182000 33006KT P6SM SCT100=



000
FTUS46 KMTR 171700
TAFOAK
TAF
KOAK 171724Z 1718/1824 15006KT P6SM BKN080 BKN130 OVC180
     FM172100 24008KT P6SM SCT050 BKN100 PROB30 1804/1810 -RA BKN040
     FM181000 VRB03KT P6SM BKN030 OVC100
     FM181500 12005KT P6SM BKN060=



000
FTUS46 KMTR 171700
TAFSFO
TAF
KSFO 171724Z 1718/1824 15006KT P6SM FEW008 BKN070 BKN180
     FM180100 24009KT P6SM FEW008 BKN100 PROB30 1804/1810 -RA BKN040
     FM181000 15005KT P6SM FEW008 BKN030 OVC100
     FM181500 VRB03KT P6SM BKN060
     FM182000 33006KT P6SM SCT100=



000
FTUS46 KMTR 171700
TAFSTS
TAF
KSTS 171724Z 1718/1818 VRB03KT P6SM BKN050 OVC070
     FM172000 18008KT P6SM OVC050
     FM172300 19007KT P6SM VCSH BKN015 OVC030
     FM180100 VRB03KT P6SM -RA OVC012
     FM181000 00000KT 1/2SM FG OVC004=



000
FTUS46 KMTR 171700
TAFSJC
TAF
KSJC 171724Z 1718/1818 VRB03KT P6SM SCT100 BKN150
     FM172200 15008KT P6SM BKN120
     FM180300 16006KT P6SM SCT040 BKN100 PROB30 1805/1811 -RA BKN040
     FM181600 VRB03KT P6SM BKN050=



000
FTUS46 KMTR 171700
TAFSNS
TAF
KSNS 171724Z 1718/1818 12006KT P6SM BKN200
     FM172000 28009KT P6SM FEW120 BKN180
     FM180400 32005KT P6SM OVC100
     FM181200 VRB03KT 5SM BR OVC040=



000
FTUS46 KMTR 171700
TAFMRY
TAF
KMRY 171724Z 1718/1818 VRB04KT P6SM BKN200
     FM172300 22006KT P6SM BKN150
     FM180300 VRB03KT P6SM SCT040 BKN100 PROB30 1806/1810 P6SM -RA
      BKN040
     FM181200 VRB03KT P6SM OVC040=



000
FTUS46 KMTR 171500 AAA
TAFSFO
TAF AMD
KSFO 171501Z 1715/1818 VRB03KT P6SM FEW008 BKN180
     FM171800 15006KT P6SM FEW008 BKN120
     FM180100 24009KT P6SM FEW008 BKN100 PROB30 1804/1810 -RA BKN040
     FM181000 15005KT P6SM FEW008 BKN100=



000
FTUS46 KMTR 171200 AAA
TAFSTS
TAF AMD
KSTS 171249Z 1713/1812 VRB03KT P6SM FEW009
     FM171800 19007KT P6SM VCSH BKN009 OVC012
     FM180100 VRB03KT P6SM -RA OVC012=



000
FTUS46 KMTR 171100
TAFOAK
TAF
KOAK 171121Z 1712/1818 25004KT P6SM BKN150
     FM171300 19006KT P6SM BKN100
     FM172100 24008KT P6SM SCT050 BKN150 PROB30 1804/1810 -RA BKN040
     FM181000 VRB03KT P6SM BKN100=



000
FTUS46 KMTR 171100
TAFSFO
TAF
KSFO 171121Z 1712/1818 23005KT P6SM FEW008 BKN150
     FM171500 15006KT P6SM FEW008 BKN100
     FM180100 24009KT P6SM FEW008 BKN100 PROB30 1804/1810 -RA BKN040
     FM181000 15005KT P6SM FEW008 BKN100=



000
FTUS46 KMTR 171100
TAFSJC
TAF
KSJC 171121Z 1712/1812 VRB03KT P6SM BKN150
     FM171400 15008KT P6SM BKN150
     FM180300 VRB03KT P6SM BKN100 PROB30 1805/1811 -RA BKN040=



000
FTUS46 KMTR 171100
TAFSTS
TAF
KSTS 171121Z 1712/1812 VRB03KT P6SM BKN009
     FM171800 19007KT P6SM VCSH BKN009 OVC012
     FM180100 VRB03KT P6SM -RA OVC012=



000
FTUS46 KMTR 171100
TAFOAK
TAF
KOAK 171121Z 1712/1818 25004KT P6SM BKN150
     FM171300 19006KT P6SM BKN100
     FM172100 24008KT P6SM SCT050 BKN150 PROB30 1804/1810 -RA BKN040
     FM181000 VRB03KT P6SM BKN100=



000
FTUS46 KMTR 171100
TAFSFO
TAF
KSFO 171121Z 1712/1818 23005KT P6SM FEW008 BKN150
     FM171500 15006KT P6SM FEW008 BKN100
     FM180100 24009KT P6SM FEW008 BKN100 PROB30 1804/1810 -RA BKN040
     FM181000 15005KT P6SM FEW008 BKN100=



000
FTUS46 KMTR 171100
TAFSTS
TAF
KSTS 171121Z 1712/1812 VRB03KT P6SM BKN009
     FM171800 19007KT P6SM VCSH BKN009 OVC012
     FM180100 VRB03KT P6SM -RA OVC012=



000
FTUS46 KMTR 171100
TAFMRY
TAF
KMRY 171121Z 1712/1812 18003KT P6SM BKN150
     FM171800 29009KT P6SM BKN120
     FM180300 VRB03KT P6SM SCT040 BKN100=



000
FTUS46 KMTR 171100
TAFSJC
TAF
KSJC 171121Z 1712/1812 VRB03KT P6SM BKN150
     FM171400 15008KT P6SM BKN150
     FM180300 VRB03KT P6SM BKN100 PROB30 1805/1811 -RA BKN040=



000
FTUS46 KMTR 171100
TAFSNS
TAF
KSNS 171121Z 1712/1812 VRB03KT P6SM BKN150
     FM171500 12006KT P6SM BKN150
     FM171900 29009KT P6SM FEW120 BKN150
     FM180400 32005KT P6SM SCT100 BKN120=



000
FTUS46 KMTR 171100
TAFMRY
TAF
KMRY 171121Z 1712/1812 18003KT P6SM BKN150
     FM171800 29009KT P6SM BKN120
     FM180300 VRB03KT P6SM SCT040 BKN100=



000
FTUS46 KMTR 171100
TAFSNS
TAF
KSNS 171121Z 1712/1812 VRB03KT P6SM BKN150
     FM171500 12006KT P6SM BKN150
     FM171900 29009KT P6SM FEW120 BKN150
     FM180400 32005KT P6SM SCT100 BKN120=



000
FTUS46 KMTR 171000 AAB
TAFOAK
TAF AMD
KOAK 171057Z 1711/1812 25004KT P6SM BKN150
     FM171300 19006KT P6SM BKN100
     FM172100 24008KT P6SM SCT050 BKN150 PROB30 1804/1810 -RA
      BKN040=



000
FTUS46 KMTR 171000 AAB
TAFOAK
TAF AMD
KOAK 171057Z 1711/1812 25004KT P6SM BKN150
     FM171300 19006KT P6SM BKN100
     FM172100 24008KT P6SM SCT050 BKN150 PROB30 1804/1810 -RA
      BKN040=



000
FTUS46 KMTR 171000 AAB
TAFSFO
TAF AMD
KSFO 171049Z 1711/1812 23005KT P6SM FEW008 BKN150
     FM171500 15005KT P6SM FEW008 BKN100
     FM180100 23007KT P6SM FEW008 BKN100 PROB30 1804/1810 -RA
      BKN040=



000
FTUS46 KMTR 171000 AAB
TAFSFO
TAF AMD
KSFO 171049Z 1711/1812 23005KT P6SM FEW008 BKN150
     FM171500 15005KT P6SM FEW008 BKN100
     FM180100 23007KT P6SM FEW008 BKN100 PROB30 1804/1810 -RA
      BKN040=



000
FTUS46 KMTR 171000 AAA
TAFSJC
TAF AMD
KSJC 171027Z 1710/1806 VRB03KT P6SM BKN150
     FM171400 15008KT P6SM BKN150
     FM180300 VRB03KT P6SM BKN100=



000
FTUS46 KMTR 171000 AAA
TAFSTS
TAF AMD
KSTS 171026Z 1710/1806 VRB03KT P6SM BKN009
     FM171800 19007KT P6SM VCSH BKN009 OVC012
     FM180300 VRB03KT P6SM VCSH OVC012=



000
FTUS46 KMTR 171000 AAA
TAFOAK
TAF AMD
KOAK 171010Z 1710/1812 25004KT P6SM BKN150
     FM171300 19006KT P6SM BKN100
     FM172100 24008KT P6SM SCT050 BKN150=



000
FTUS46 KMTR 170800 AAA
TAFSFO
TAF AMD
KSFO 170857Z 1709/1812 26005KT P6SM FEW010 BKN150
     FM171000 23005KT P6SM FEW008 BKN150
     FM171500 15005KT P6SM FEW008 BKN100
     FM180100 23007KT P6SM FEW008 BKN100=



    US Dept of Commerce
    National Oceanic and Atmospheric Administration
    National Weather Service
    1325 East West Highway
    Silver Spring, MD 20910
    Page Author: NWS Internet Services Team
Disclaimer
Information Quality
Credits
Glossary
Privacy Policy
Freedom of Information Act (FOIA)
About Us
Career Opportunities